NCAR-RAP Real-Time Weather Data

Output produced by METARs form (30 April 2017  03:11 UTC)
found at http://weather.rap.ucar.edu/surface/
 
Conditions at: K4O4 observed 30 April 2017  02:55 UTC
Temperature: 19.0°C (66°F)
Dewpoint: 16.0°C (61°F) [RH = 83%]
Pressure (altimeter): 29.56 inches Hg (1001.1 mb)
Winds: from the SE (130 degrees) at 8 MPH (7 knots; 3.6 m/s)
Visibility: 4 miles (6 km)
Ceiling: at least 12,000 feet AGL
Clouds: scattered clouds at 500 feet AGL
scattered clouds at 1400 feet AGL
Present Weather: automated observation with no human augmentation;
there may or may not be significant weather present at this time
K4O4 300255Z AUTO 13007KT 4SM SCT005 SCT014 19/16 A2956 RMK AO2 P0002